OPRN/ISB METAR and TAF weather

Enter ICAO airport designator
Station Type Date Time Source
OPRN METAR 2018/12/10 01:00 UTC NOAA

OPRN 100100Z 05006KT 2500 VCTS FEW010 FEW025TCU SCT035 BKN080 11/10 Q1015 TEMPO 2000 RA FEW030TCU/CB SCT040 BKN080 RMK A2999


Station Type Date Time Source
OPRN Decoded METAR 2018/12/10 01:00 UTC NOAA

Islamabad Airport, Pakistan (OPRN) 33-37N 073-06E 508M
Dec 09, 2018 - 08:00 PM EST / 2018.12.10 0100 UTC
Wind: from the NE (050 degrees) at 7 MPH (6 KT):0
Visibility: 1 mile(s):0
Sky conditions: mostly cloudy
Weather: thunder in the vicinity; rain; Cumulonimbus clouds, towering cumulus clouds observed
Temperature: 51 F (11 C)
Dew Point: 50 F (10 C)
Relative Humidity: 93%
Pressure (altimeter): 29.97 in. Hg (1015 hPa)
ob: OPRN 100100Z 05006KT 2500 VCTS FEW010 FEW025TCU SCT035 BKN080 11/10 Q1015 TEMPO 2000 RA FEW030TCU/CB SCT040 BKN080 RMK A2999
cycle: 1

Station Type Date Time Source
OPRN TAF 2018/12/09 18:05 UTC NOAA

TAF OPRN 091200Z 0918/1024 13010KT 2500 RA FEW020TCU SCT030 BKN100
TEMPO 0922/1007 13010G25KT 1500 TSRA SCT010 FEW020CB BKN030 OVC080
BECMG 1009/1012 30010KT 4000 BR SCT030 BKN100


Example: see airport list